Time;durP1;ratioP1;P1;durP2;ratioP2;P2;SDS_P1;SDS_P2;PMS_P1;PMS_P2;Temp;Humidity;BMP_temperature;BMP_pressure;BME280_temperature;BME280_humidity;BME280_pressure;Samples;Min_cycle;Max_cycle;Signal;HPM_P1;HPM_P2
2021/03/20 05:01:08;;;;;;;;;;;0.70;99.90;;;;;;5742685;23;19939;-68
2021/03/20 05:03:37;;;;;;;;;;;0.70;99.90;;;;;;5036747;28;20306;-68
2021/03/20 05:06:06;;;;;;;;;;;0.70;99.90;;;;;;5036835;28;19929;-68
2021/03/20 05:08:33;;;;;;;;;;;0.70;99.90;;;;;;5036944;28;19948;-68
2021/03/20 05:11:02;;;;;;;;;;;0.70;99.90;;;;;;5034472;22;19925;-68
2021/03/20 05:13:32;;;;;;;;;;;0.70;99.90;;;;;;5016619;28;19932;-68
2021/03/20 05:16:02;;;;;;;;;;;0.80;99.90;;;;;;5016409;28;19926;-68
2021/03/20 05:18:29;;;;;;;;;;;0.80;99.90;;;;;;5016968;28;20348;-68
2021/03/20 05:20:55;;;;;;;;;;;0.70;99.90;;;;;;5016834;28;19933;-68
2021/03/20 05:23:21;;;;;;;;;;;0.60;99.90;;;;;;5016915;28;19932;-68
2021/03/20 05:25:47;;;;;;;;;;;0.70;99.90;;;;;;5016843;28;19979;-67
2021/03/20 05:28:13;;;;;;;;;;;0.70;99.90;;;;;;5016687;28;20388;-68
2021/03/20 05:30:39;;;;;;;;;;;0.70;99.90;;;;;;5016464;28;20407;-67
2021/03/20 05:33:05;;;;;;;;;;;0.70;99.90;;;;;;5016710;28;19966;-68
2021/03/20 05:35:32;;;;;;;;;;;0.70;99.90;;;;;;5017791;28;19925;-68
2021/03/20 05:37:58;;;;;;;;;;;0.70;99.90;;;;;;5018009;28;19925;-68
2021/03/20 05:40:27;;;;;;;;;;;0.70;99.90;;;;;;5016533;28;19929;-67
2021/03/20 05:43:19;;;;;;;;;;;0.70;99.90;;;;;;5017123;28;19933;-67
2021/03/20 05:45:50;;;;;;;;;;;0.70;99.90;;;;;;5017187;28;19936;-68
2021/03/20 05:48:18;;;;;;;;;;;0.60;99.90;;;;;;5026005;28;19941;-68
2021/03/20 05:50:53;;;;;;;;;;;0.60;99.90;;;;;;5024763;28;20376;-68
2021/03/20 05:53:28;;;;;;;;;;;0.60;99.90;;;;;;5016972;28;19933;-68
2021/03/20 05:55:56;;;;;;;;;;;0.70;99.90;;;;;;5016572;28;19979;-69
2021/03/20 05:58:34;;;;;;;;;;;0.80;99.90;;;;;;5016584;28;20020;-69
2021/03/20 06:01:04;;;;;;;;;;;0.80;99.90;;;;;;5016524;28;19933;-68
2021/03/20 06:03:37;;;;;;;;;;;0.80;99.90;;;;;;5017216;28;19956;-68
2021/03/20 06:06:13;;;;;;;7.33;6.30;;;0.90;99.90;;;;;;5016826;28;19925;-69
2021/03/20 06:08:53;;;;;;;7.17;6.30;;;0.80;99.90;;;;;;5016642;28;20436;-68
2021/03/20 06:11:33;;;;;;;6.43;5.83;;;0.80;99.90;;;;;;5015730;28;21003;-68
2021/03/20 06:14:18;;;;;;;7.70;6.20;;;0.80;99.90;;;;;;5015730;28;20437;-68
2021/03/20 06:16:54;;;;;;;6.67;5.87;;;0.90;99.90;;;;;;5015632;28;20461;-69
2021/03/20 06:19:36;;;;;;;6.33;5.73;;;1.10;99.90;;;;;;5015595;28;20441;-69
2021/03/20 06:22:49;;;;;;;6.87;6.17;;;1.10;99.90;;;;;;5016919;28;20441;-69
2021/03/20 06:25:43;;;;;;;6.30;5.43;;;1.20;99.90;;;;;;5016107;28;20445;-68
2021/03/20 06:28:11;;;;;;;6.00;5.40;;;1.30;99.90;;;;;;5016698;28;20528;-68
2021/03/20 06:30:41;;;;;;;6.10;5.53;;;1.30;99.90;;;;;;5016366;28;20476;-70
2021/03/20 06:33:21;;;;;;;6.70;5.70;;;1.40;99.90;;;;;;5015147;28;20445;-68
2021/03/20 06:35:52;;;;;;;6.50;5.43;;;1.60;99.90;;;;;;5015112;28;20497;-69
2021/03/20 06:38:29;;;;;;;8.17;5.60;;;1.60;99.90;;;;;;5015262;28;20448;-67
2021/03/20 06:41:07;;;;;;;6.40;5.77;;;1.80;99.90;;;;;;5014975;28;20534;-68
2021/03/20 06:43:38;;;;;;;6.37;5.87;;;1.80;99.90;;;;;;5015063;28;20441;-69
2021/03/20 06:46:04;;;;;;;7.63;5.53;;;1.70;99.90;;;;;;5014733;28;20434;-69
2021/03/20 06:48:32;;;;;;;6.57;5.50;;;1.90;99.90;;;;;;5014956;28;20457;-69
2021/03/20 06:51:00;;;;;;;5.33;4.90;;;2.00;99.90;;;;;;5014352;28;20472;-68
2021/03/20 06:53:47;;;;;;;5.60;5.10;;;2.00;99.90;;;;;;5014272;28;20454;-69
2021/03/20 06:56:16;;;;;;;5.70;5.17;;;2.20;99.90;;;;;;5014664;28;20264;-69
2021/03/20 06:58:43;;;;;;;5.83;5.17;;;2.30;99.90;;;;;;5014856;28;20479;-69
2021/03/20 07:01:35;;;;;;;5.70;5.30;;;2.30;99.90;;;;;;5014337;28;20473;-69
2021/03/20 07:04:35;;;;;;;6.00;5.50;;;2.40;99.90;;;;;;5014793;28;20495;-69
2021/03/20 07:07:31;;;;;;;6.90;4.77;;;2.60;99.90;;;;;;5014300;28;20433;-69
2021/03/20 07:10:00;;;;;;;4.83;4.43;;;3.10;99.90;;;;;;5009033;28;20468;-70
2021/03/20 07:12:27;;;;;;;4.70;4.20;;;3.10;99.90;;;;;;5014058;28;20916;-69
2021/03/20 07:14:55;;;;;;;4.63;4.23;;;3.20;99.90;;;;;;5014376;28;20456;-69
2021/03/20 07:17:30;;;;;;;4.60;4.17;;;3.20;99.90;;;;;;5014409;28;20818;-69
2021/03/20 07:19:59;;;;;;;4.37;3.97;;;3.20;99.90;;;;;;5014557;28;20472;-68
2021/03/20 07:22:30;;;;;;;5.30;4.40;;;3.10;99.90;;;;;;5028282;28;20436;-69
2021/03/20 07:24:59;;;;;;;5.03;3.60;;;3.20;99.90;;;;;;5020593;28;20432;-69
2021/03/20 07:27:32;;;;;;;5.87;4.20;;;3.10;99.90;;;;;;5014251;28;20479;-68
2021/03/20 07:30:03;;;;;;;4.80;4.30;;;3.10;99.90;;;;;;5014720;28;20468;-68
2021/03/20 07:32:36;;;;;;;4.03;3.63;;;3.30;99.90;;;;;;5014208;28;20449;-68
2021/03/20 07:35:25;;;;;;;4.50;4.10;;;3.60;99.90;;;;;;5014765;28;20880;-68
2021/03/20 07:37:53;;;;;;;4.47;3.53;;;3.40;99.90;;;;;;5015574;28;20449;-68
2021/03/20 07:40:31;;;;;;;3.80;3.50;;;3.40;99.90;;;;;;5014425;28;21014;-68
2021/03/20 07:43:11;;;;;;;3.80;3.40;;;3.60;99.90;;;;;;5014170;28;20997;-67
2021/03/20 07:45:37;;;;;;;3.70;3.40;;;4.00;99.90;;;;;;5014347;28;20444;-67
2021/03/20 07:48:06;;;;;;;5.33;3.40;;;4.10;99.90;;;;;;5014374;28;20480;-67
2021/03/20 07:50:37;;;;;;;4.30;4.00;;;4.40;99.90;;;;;;5014299;28;20481;-68
2021/03/20 07:53:08;;;;;;;3.83;3.63;;;4.70;99.90;;;;;;5014886;28;20437;-68
2021/03/20 07:55:55;;;;;;;4.33;3.90;;;4.80;99.90;;;;;;5015613;28;20963;-68
2021/03/20 07:58:23;;;;;;;4.23;3.83;;;4.80;99.90;;;;;;5014557;28;20440;-68
2021/03/20 08:00:56;;;;;;;3.87;3.57;;;4.90;99.90;;;;;;5014652;28;20480;-68
2021/03/20 08:03:25;;;;;;;3.87;3.57;;;4.80;99.90;;;;;;5017485;28;20444;-68
2021/03/20 08:05:52;;;;;;;3.27;2.97;;;5.40;99.90;;;;;;5018908;28;20453;-68
2021/03/20 08:08:21;;;;;;;4.33;3.80;;;5.80;99.90;;;;;;5017947;28;21021;-67
2021/03/20 08:10:50;;;;;;;5.33;3.40;;;6.20;99.90;;;;;;5017968;28;20484;-67
2021/03/20 08:13:28;;;;;;;3.70;3.40;;;7.50;98.30;;;;;;5018791;28;20827;-68
2021/03/20 08:15:57;;;;;;;5.00;3.47;;;8.20;93.70;;;;;;5018941;28;20552;-68
2021/03/20 08:18:26;;;;;;;3.03;2.83;;;8.70;92.70;;;;;;5018460;28;20437;-68
2021/03/20 08:21:36;;;;;;;3.53;3.20;;;9.10;89.80;;;;;;5018017;28;20479;-68
2021/03/20 08:24:18;;;;;;;3.50;3.20;;;9.60;86.00;;;;;;5017749;28;20944;-67
2021/03/20 08:26:54;;;;;;;2.83;2.73;;;9.20;76.30;;;;;;5018292;28;20448;-67
2021/03/20 08:29:41;;;;;;;3.73;3.37;;;8.40;78.30;;;;;;5018695;28;20448;-68
2021/03/20 08:32:18;;;;;;;3.23;2.90;;;8.20;81.20;;;;;;5017912;28;20448;-67
2021/03/20 08:34:54;;;;;;;3.10;2.90;;;8.50;81.50;;;;;;5017734;28;20980;-67
2021/03/20 08:37:36;;;;;;;3.00;2.80;;;9.10;82.80;;;;;;5017261;28;20457;-67
2021/03/20 08:40:27;;;;;;;3.27;3.03;;;10.30;77.00;;;;;;5017725;28;20476;-68
2021/03/20 08:43:09;;;;;;;3.00;2.80;;;10.40;69.00;;;;;;5018061;28;20463;-68
2021/03/20 08:45:43;;;;;;;2.83;2.73;;;10.20;70.10;;;;;;5018555;28;20433;-67
2021/03/20 08:48:24;;;;;;;3.27;3.00;;;10.80;66.30;;;;;;5017888;28;20429;-68
2021/03/20 08:51:03;;;;;;;3.13;2.93;;;11.50;65.40;;;;;;5017535;28;20480;-68
2021/03/20 08:53:37;;;;;;;3.83;3.53;;;11.30;64.80;;;;;;5017628;28;20788;-68
2021/03/20 08:56:20;;;;;;;3.20;2.90;;;10.50;64.70;;;;;;5018452;28;20579;-68
2021/03/20 08:58:58;;;;;;;3.20;3.00;;;10.10;65.30;;;;;;5026268;28;20433;-68
2021/03/20 09:01:35;;;;;;;3.30;3.00;;;9.20;63.70;;;;;;5016987;28;20476;-67
2021/03/20 09:04:04;;;;;;;3.00;2.80;;;8.40;66.90;;;;;;5017205;28;20916;-68
2021/03/20 09:06:35;;;;;;;3.53;3.23;;;7.50;71.80;;;;;;5017683;28;20460;-66
2021/03/20 09:09:06;;;;;;;3.43;3.13;;;7.10;73.10;;;;;;5017119;28;20444;-68
2021/03/20 09:11:40;;;;;;;3.47;3.20;;;7.20;73.80;;;;;;5017008;28;20492;-67
2021/03/20 09:14:15;;;;;;;3.77;3.40;;;6.80;74.30;;;;;;5017424;28;20441;-67
2021/03/20 09:16:46;;;;;;;4.40;3.50;;;7.10;73.10;;;;;;5017121;28;20460;-66
2021/03/20 09:19:20;;;;;;;3.17;2.87;;;6.60;73.00;;;;;;5016475;28;20444;-66
2021/03/20 09:21:47;;;;;;;3.10;2.90;;;6.80;75.70;;;;;;5016354;28;20485;-66
2021/03/20 09:24:19;;;;;;;2.83;2.63;;;7.20;70.80;;;;;;5016827;28;20461;-65
2021/03/20 09:26:48;;;;;;;5.27;2.80;;;7.40;68.00;;;;;;5016985;28;20437;-63
2021/03/20 09:29:21;;;;;;;3.27;3.03;;;7.50;68.80;;;;;;5016573;28;20459;-64
2021/03/20 09:32:13;;;;;;;2.73;2.63;;;7.50;69.60;;;;;;5017154;28;20955;-65
2021/03/20 09:34:53;;;;;;;2.87;2.67;;;7.30;67.60;;;;;;5016188;28;20448;-68
2021/03/20 09:37:48;;;;;;;2.67;2.43;;;7.20;66.60;;;;;;5016174;28;20465;-68
2021/03/20 09:40:49;;;;;;;2.33;2.20;;;7.10;71.20;;;;;;5016114;28;20559;-69
2021/03/20 09:43:19;;;;;;;3.17;2.33;;;6.80;63.70;;;;;;5016244;28;20444;-68
2021/03/20 09:45:46;;;;;;;4.70;2.70;;;7.30;82.60;;;;;;5015976;28;20526;-68
2021/03/20 09:48:42;;;;;;;3.60;2.97;;;7.70;90.50;;;;;;5015986;28;20453;-68
2021/03/20 09:51:42;;;;;;;2.20;2.10;;;7.70;69.50;;;;;;5015518;28;21057;-70
2021/03/20 09:54:41;;;;;;;3.13;2.50;;;8.60;59.30;;;;;;5015412;28;20445;-68
2021/03/20 09:57:48;;;;;;;2.63;2.30;;;8.60;62.20;;;;;;4983738;28;20488;-67
2021/03/20 10:00:35;;;;;;;2.77;2.37;;;8.20;60.00;;;;;;5016923;28;20472;-68
2021/03/20 10:03:01;;;;;;;2.40;2.30;;;7.80;61.60;;;;;;5015782;28;20457;-68
2021/03/20 10:05:30;;;;;;;3.37;2.30;;;7.70;60.00;;;;;;5015905;28;20465;-69
2021/03/20 10:07:59;;;;;;;3.50;3.20;;;8.10;64.30;;;;;;5016122;28;20453;-68
2021/03/20 10:10:47;;;;;;;2.70;2.50;;;8.40;60.00;;;;;;5016286;28;20480;-69
2021/03/20 10:13:23;;;;;;;2.60;2.40;;;9.10;59.00;;;;;;5016483;28;20536;-70
2021/03/20 10:15:58;;;;;;;2.43;2.33;;;9.60;59.20;;;;;;5017982;28;20460;-71
2021/03/20 10:18:28;;;;;;;3.33;2.83;;;9.50;58.30;;;;;;5015298;28;20444;-71
2021/03/20 10:20:59;;;;;;;2.73;2.13;;;9.70;55.40;;;;;;5014993;28;20996;-71
2021/03/20 10:23:38;;;;;;;2.70;2.53;;;10.00;54.10;;;;;;5015779;28;20445;-70
2021/03/20 10:26:15;;;;;;;3.20;2.40;;;10.30;56.80;;;;;;5015043;28;20444;-70
2021/03/20 10:28:47;;;;;;;2.80;2.60;;;11.10;57.10;;;;;;5018815;28;20448;-71
2021/03/20 10:31:15;;;;;;;3.00;2.70;;;11.70;53.30;;;;;;5029972;28;20477;-72
2021/03/20 10:33:44;;;;;;;2.73;2.53;;;12.10;51.30;;;;;;5015684;28;20445;-72
2021/03/20 10:36:32;;;;;;;3.43;3.13;;;12.20;52.00;;;;;;5015280;28;21037;-69
2021/03/20 10:38:58;;;;;;;2.30;2.20;;;12.00;50.60;;;;;;5016439;28;20528;-71
2021/03/20 10:41:29;;;;;;;3.30;3.00;;;13.00;50.10;;;;;;5015804;28;20473;-71
2021/03/20 10:44:01;;;;;;;3.00;2.80;;;12.30;52.50;;;;;;5017376;28;20540;-76
2021/03/20 10:46:30;;;;;;;2.83;2.63;;;12.80;50.20;;;;;;5018126;28;20908;-72
2021/03/20 10:48:59;;;;;;;2.97;2.80;;;13.20;52.30;;;;;;5017564;28;20453;-71
2021/03/20 10:51:33;;;;;;;3.33;3.13;;;13.80;47.30;;;;;;5018173;28;20476;-73
2021/03/20 10:54:09;;;;;;;2.70;2.60;;;13.10;45.80;;;;;;5025138;28;20441;-71
2021/03/20 10:56:38;;;;;;;2.70;2.50;;;13.00;50.30;;;;;;5024011;28;20461;-73
2021/03/20 10:59:14;;;;;;;4.43;3.67;;;13.30;49.20;;;;;;5023844;28;20452;-72
2021/03/20 11:01:40;;;;;;;3.17;2.97;;;13.60;50.00;;;;;;5017240;28;20880;-72
2021/03/20 11:04:13;;;;;;;3.70;3.50;;;13.30;48.50;;;;;;5017813;28;20514;-73
2021/03/20 11:06:52;;;;;;;3.00;2.80;;;13.20;50.80;;;;;;5016675;28;20445;-73
2021/03/20 11:09:22;;;;;;;3.00;2.90;;;13.50;50.50;;;;;;5017675;28;20507;-73
2021/03/20 11:11:49;;;;;;;3.63;3.43;;;12.70;52.60;;;;;;5017509;28;20886;-71
2021/03/20 11:14:18;;;;;;;3.53;3.27;;;11.50;52.40;;;;;;5016525;28;20492;-72
2021/03/20 11:16:48;;;;;;;4.40;4.10;;;10.20;50.90;;;;;;5016719;28;20476;-70
2021/03/20 11:19:29;;;;;;;4.00;3.60;;;9.40;58.90;;;;;;5016640;28;20540;-72
2021/03/20 11:22:02;;;;;;;3.30;3.10;;;8.30;56.80;;;;;;5017292;28;20476;-73
2021/03/20 11:24:35;;;;;;;3.80;3.10;;;8.10;55.40;;;;;;5017427;28;20920;-72
2021/03/20 11:27:17;;;;;;;3.70;3.33;;;7.70;57.00;;;;;;5016545;28;20443;-72
2021/03/20 11:29:51;;;;;;;3.37;3.17;;;7.60;63.30;;;;;;5019238;28;20768;-72
2021/03/20 11:32:24;;;;;;;3.73;3.43;;;7.40;57.70;;;;;;5016317;28;20437;-69
2021/03/20 11:35:01;;;;;;;3.33;3.20;;;7.20;77.60;;;;;;5015769;28;20964;-71
2021/03/20 11:37:29;;;;;;;3.20;3.00;;;7.20;67.50;;;;;;5017162;28;20499;-72
2021/03/20 11:39:57;;;;;;;3.50;3.00;;;7.50;62.00;;;;;;5020130;28;20495;-73
2021/03/20 11:42:28;;;;;;;4.00;3.70;;;7.60;64.10;;;;;;5020551;28;20452;-74
2021/03/20 11:44:56;;;;;;;3.10;3.00;;;7.80;70.50;;;;;;5019869;28;20437;-72
2021/03/20 11:47:26;;;;;;;3.53;3.20;;;8.20;65.10;;;;;;5019108;28;20552;-71
2021/03/20 11:49:54;;;;;;;3.33;3.13;;;8.50;60.40;;;;;;5021448;28;20854;-71
2021/03/20 11:52:22;;;;;;;4.00;3.70;;;8.60;60.50;;;;;;5022492;28;20445;-72
2021/03/20 11:55:00;;;;;;;4.57;4.17;;;9.10;63.40;;;;;;5024387;28;20459;-72
2021/03/20 11:57:32;;;;;;;4.33;3.37;;;8.90;59.80;;;;;;5020870;28;20471;-72
2021/03/20 11:59:59;;;;;;;3.00;2.77;;;7.90;60.60;;;;;;5023806;28;20476;-73
2021/03/20 12:02:38;;;;;;;3.57;3.27;;;7.50;59.20;;;;;;5031052;28;20464;-73
2021/03/20 12:05:30;;;;;;;5.90;3.50;;;7.20;60.00;;;;;;5023465;28;20935;-73
2021/03/20 12:08:20;;;;;;;3.00;2.80;;;7.10;64.70;;;;;;5007517;28;20943;-73
2021/03/20 12:11:04;;;;;;;3.53;3.23;;;7.30;70.70;;;;;;5021563;28;20476;-72
2021/03/20 12:13:43;;;;;;;3.83;3.50;;;7.40;65.30;;;;;;5021062;28;20441;-72
2021/03/20 12:16:28;;;;;;;3.53;3.23;;;7.30;65.80;;;;;;5020947;28;20556;-74
2021/03/20 12:19:17;;;;;;;3.33;3.10;;;7.30;68.10;;;;;;5020453;28;20437;-72
2021/03/20 12:22:04;;;;;;;4.10;3.30;;;7.60;62.20;;;;;;5022176;28;20487;-73
2021/03/20 12:24:35;;;;;;;3.40;3.13;;;8.10;67.80;;;;;;5020600;28;20448;-70
2021/03/20 12:27:26;;;;;;;2.97;2.87;;;8.30;64.80;;;;;;5019179;28;20448;-72
2021/03/20 12:29:58;;;;;;;3.17;2.93;;;8.60;60.00;;;;;;5018974;28;20456;-72
2021/03/20 12:32:33;;;;;;;3.30;3.20;;;8.50;62.40;;;;;;5019405;28;20447;-71
2021/03/20 12:35:22;;;;;;;3.27;3.07;;;8.20;59.60;;;;;;5018989;28;20440;-71
2021/03/20 12:37:50;;;;;;;3.90;3.60;;;8.70;65.80;;;;;;5018933;28;20461;-71
2021/03/20 12:40:18;;;;;;;2.83;2.73;;;9.00;62.30;;;;;;5019854;28;20484;-73
2021/03/20 12:42:46;;;;;;;3.40;3.17;;;9.20;59.60;;;;;;5022362;28;20943;-72
2021/03/20 12:45:24;;;;;;;3.23;3.03;;;9.30;60.80;;;;;;5021679;28;20457;-72
2021/03/20 12:47:50;;;;;;;3.50;3.30;;;9.40;61.90;;;;;;5019346;28;20441;-72
2021/03/20 12:50:16;;;;;;;3.37;3.17;;;9.40;58.50;;;;;;5019784;28;20500;-69
2021/03/20 12:52:43;;;;;;;3.77;3.43;;;9.60;61.50;;;;;;5021291;28;20510;-71
2021/03/20 12:55:11;;;;;;;3.23;2.90;;;9.60;58.60;;;;;;5019604;28;20455;-71
2021/03/20 12:57:37;;;;;;;3.17;3.00;;;9.30;57.90;;;;;;5019916;28;20851;-71
2021/03/20 13:00:07;;;;;;;3.43;3.10;;;9.30;56.50;;;;;;5019489;28;20479;-70
2021/03/20 13:02:35;;;;;;;3.27;3.07;;;8.80;56.90;;;;;;5020913;28;20453;-72
2021/03/20 13:05:01;;;;;;;3.67;3.37;;;8.60;60.60;;;;;;5021350;28;20461;-70
2021/03/20 13:07:27;;;;;;;3.10;2.90;;;8.40;59.10;;;;;;5022771;28;20457;-70
2021/03/20 13:09:54;;;;;;;3.30;3.10;;;8.30;58.30;;;;;;5018465;28;20464;-68
2021/03/20 13:12:20;;;;;;;3.60;3.10;;;8.10;59.60;;;;;;5016923;28;20935;-71
2021/03/20 13:14:47;;;;;;;3.30;3.10;;;8.40;58.20;;;;;;5018225;28;20457;-71
2021/03/20 13:17:15;;;;;;;3.50;3.20;;;8.40;56.80;;;;;;5017802;28;20480;-67
2021/03/20 13:19:41;;;;;;;5.43;2.80;;;8.40;58.30;;;;;;5017818;28;20426;-70
2021/03/20 13:22:08;;;;;;;5.47;3.07;;;8.30;57.90;;;;;;5017442;28;20442;-69
2021/03/20 13:24:35;;;;;;;2.90;2.70;;;8.00;64.20;;;;;;5017642;28;20452;-69
2021/03/20 13:27:02;;;;;;;3.60;3.30;;;8.40;60.10;;;;;;5016994;28;20499;-71
2021/03/20 13:29:28;;;;;;;3.73;3.43;;;7.90;59.30;;;;;;5017790;28;20453;-72
2021/03/20 13:31:54;;;;;;;3.10;2.90;;;8.00;58.30;;;;;;5026697;28;20473;-71
2021/03/20 13:34:22;;;;;;;4.00;3.03;;;8.20;59.90;;;;;;5048040;23;21004;-66
2021/03/20 13:36:48;;;;;;;3.47;3.10;;;8.20;59.90;;;;;;5035512;28;20482;-66
2021/03/20 13:39:14;;;;;;;3.60;3.30;;;8.20;58.00;;;;;;5035569;28;20456;-65
2021/03/20 13:41:40;;;;;;;3.33;3.13;;;7.90;56.70;;;;;;5035313;28;20873;-66
2021/03/20 13:44:08;;;;;;;3.37;3.07;;;7.70;57.10;;;;;;5035686;28;20842;-65
2021/03/20 13:46:34;;;;;;;3.00;2.40;;;8.00;60.30;;;;;;5035474;28;20452;-67
2021/03/20 13:49:00;;;;;;;3.07;2.87;;;8.30;58.00;;;;;;5035492;28;20514;-65
2021/03/20 13:51:27;;;;;;;2.90;2.80;;;8.20;56.50;;;;;;5035504;28;20502;-66
2021/03/20 13:53:54;;;;;;;2.80;2.60;;;8.00;56.80;;;;;;5034579;28;20480;-65
2021/03/20 13:56:20;;;;;;;2.80;2.47;;;8.00;56.40;;;;;;5034784;28;20506;-65
2021/03/20 13:58:46;;;;;;;2.83;2.63;;;7.70;57.10;;;;;;5034310;28;21033;-65
2021/03/20 14:01:12;;;;;;;3.10;2.87;;;7.70;58.20;;;;;;5033446;28;20839;-65
2021/03/20 14:03:38;;;;;;;2.87;2.70;;;7.50;57.30;;;;;;5034229;28;20483;-65
2021/03/20 14:06:05;;;;;;;3.10;2.90;;;7.40;58.80;;;;;;5034529;28;20455;-66
2021/03/20 14:08:33;;;;;;;2.80;2.60;;;7.60;58.90;;;;;;5034583;28;20463;-66
2021/03/20 14:11:01;;;;;;;2.80;2.60;;;7.40;57.90;;;;;;5034768;28;20460;-66
2021/03/20 14:13:28;;;;;;;2.90;2.60;;;7.60;59.00;;;;;;5034979;28;20472;-65
2021/03/20 14:15:55;;;;;;;2.90;2.70;;;7.40;55.90;;;;;;5034505;28;20455;-66
2021/03/20 14:18:24;;;;;;;2.73;2.53;;;7.40;56.10;;;;;;5034649;28;20452;-65
2021/03/20 14:20:54;;;;;;;2.80;2.60;;;7.40;56.10;;;;;;5034873;28;20788;-65
2021/03/20 14:23:22;;;;;;;2.60;2.30;;;7.10;57.30;;;;;;5034824;28;20981;-66
2021/03/20 14:25:49;;;;;;;3.60;3.30;;;7.00;54.10;;;;;;5034857;28;20456;-65
2021/03/20 14:28:18;;;;;;;2.43;2.30;;;6.90;55.50;;;;;;5034793;28;20455;-65
2021/03/20 14:30:46;;;;;;;2.33;2.23;;;7.00;56.80;;;;;;5034820;28;20817;-66
2021/03/20 14:33:13;;;;;;;3.73;2.90;;;6.90;55.10;;;;;;5034519;28;20553;-66
2021/03/20 14:35:39;;;;;;;2.80;2.60;;;7.00;55.10;;;;;;5034679;28;20510;-65
2021/03/20 14:38:06;;;;;;;5.30;2.43;;;7.00;56.60;;;;;;5034633;28;20451;-66
2021/03/20 14:40:34;;;;;;;2.60;2.40;;;7.00;55.40;;;;;;5034256;28;20463;-66
2021/03/20 14:43:01;;;;;;;2.57;2.37;;;7.00;54.70;;;;;;5034247;28;20510;-65
2021/03/20 14:45:27;;;;;;;2.23;2.13;;;7.10;56.10;;;;;;5034268;28;20456;-65
2021/03/20 14:47:54;;;;;;;2.10;2.00;;;7.10;56.10;;;;;;5034314;28;20527;-65
2021/03/20 14:50:26;;;;;;;2.30;2.20;;;7.20;55.60;;;;;;5034078;28;20501;-66
2021/03/20 14:52:56;;;;;;;2.70;2.50;;;7.20;54.40;;;;;;5033927;28;20533;-66
2021/03/20 14:55:23;;;;;;;1.90;1.63;;;7.00;54.20;;;;;;5033935;28;20811;-66
2021/03/20 14:57:49;;;;;;;2.47;2.27;;;6.80;54.60;;;;;;5033637;28;20530;-67
2021/03/20 15:00:22;;;;;;;3.23;2.60;;;7.00;57.50;;;;;;5034159;28;20455;-66
2021/03/20 15:02:48;;;;;;;3.10;2.30;;;7.00;55.90;;;;;;5034267;28;20483;-66
2021/03/20 15:05:15;;;;;;;2.60;2.40;;;7.00;55.70;;;;;;5033911;28;20942;-65
2021/03/20 15:07:41;;;;;;;4.40;2.43;;;6.80;56.20;;;;;;5034377;28;20486;-66
2021/03/20 15:10:10;;;;;;;3.60;3.30;;;6.90;56.50;;;;;;5034386;28;20460;-68
2021/03/20 15:12:36;;;;;;;1.97;1.80;;;7.00;55.90;;;;;;5033775;28;20523;-67
2021/03/20 15:15:03;;;;;;;3.37;2.50;;;7.00;56.50;;;;;;5034153;28;20954;-68
2021/03/20 15:17:30;;;;;;;2.80;2.50;;;7.10;56.00;;;;;;5034411;28;20476;-66
2021/03/20 15:19:56;;;;;;;3.03;2.80;;;7.30;56.50;;;;;;5034674;28;20456;-67
2021/03/20 15:22:22;;;;;;;2.73;2.53;;;7.30;55.70;;;;;;5033800;28;20459;-66
2021/03/20 15:24:48;;;;;;;5.53;2.57;;;7.00;55.10;;;;;;5033971;28;20551;-67
2021/03/20 15:27:14;;;;;;;1.87;1.67;;;6.90;56.00;;;;;;5034590;28;20448;-67
2021/03/20 15:29:41;;;;;;;2.90;2.50;;;7.20;56.30;;;;;;5034143;28;20460;-67
2021/03/20 15:32:08;;;;;;;2.37;2.20;;;7.10;55.80;;;;;;5036639;28;20953;-67
2021/03/20 15:34:37;;;;;;;3.60;3.17;;;7.00;55.70;;;;;;5033282;28;20517;-66
2021/03/20 15:37:04;;;;;;;2.63;2.43;;;6.90;57.00;;;;;;5033810;28;20499;-66
2021/03/20 15:39:30;;;;;;;2.90;2.70;;;6.90;59.10;;;;;;5033775;28;20502;-67
2021/03/20 15:41:56;;;;;;;2.80;2.60;;;6.90;60.90;;;;;;5034308;28;20452;-68
2021/03/20 15:44:22;;;;;;;5.43;3.10;;;6.90;57.40;;;;;;5035483;28;20472;-68
2021/03/20 15:46:49;;;;;;;4.10;2.80;;;6.90;58.70;;;;;;5035740;28;20942;-68
2021/03/20 15:49:15;;;;;;;2.93;2.73;;;6.90;57.90;;;;;;5035175;28;20456;-67
2021/03/20 15:51:42;;;;;;;3.00;2.70;;;6.90;55.90;;;;;;5034143;28;20455;-68
2021/03/20 15:54:08;;;;;;;4.00;3.20;;;6.90;56.80;;;;;;5033720;28;21017;-66
2021/03/20 15:56:34;;;;;;;3.30;3.00;;;6.70;57.60;;;;;;5033805;28;20463;-66
2021/03/20 15:59:00;;;;;;;5.93;2.50;;;6.70;57.40;;;;;;5036626;28;20525;-66
2021/03/20 16:01:27;;;;;;;3.50;2.23;;;6.60;56.60;;;;;;5037861;28;20482;-66
2021/03/20 16:03:53;;;;;;;3.10;2.90;;;6.50;57.30;;;;;;5039236;28;20480;-67
2021/03/20 16:06:19;;;;;;;3.33;3.00;;;6.50;56.90;;;;;;5038508;28;20939;-66
2021/03/20 16:08:49;;;;;;;3.50;3.30;;;6.30;57.50;;;;;;5048370;28;20451;-66
2021/03/20 16:11:17;;;;;;;6.80;4.27;;;6.30;57.60;;;;;;5046708;28;20937;-66
2021/03/20 16:13:45;;;;;;;2.87;2.67;;;6.40;59.10;;;;;;5034155;28;20479;-66
2021/03/20 16:16:14;;;;;;;2.90;2.70;;;6.50;59.00;;;;;;5033889;28;20475;-66
2021/03/20 16:18:41;;;;;;;3.80;3.23;;;6.30;58.70;;;;;;5036276;28;20455;-66
2021/03/20 16:21:09;;;;;;;3.30;3.00;;;6.30;59.30;;;;;;5034245;28;20461;-66
2021/03/20 16:23:35;;;;;;;3.10;2.90;;;6.10;59.20;;;;;;5034873;28;20490;-66
2021/03/20 16:26:05;;;;;;;4.73;3.13;;;6.00;59.70;;;;;;5037359;28;20865;-66
2021/03/20 16:28:36;;;;;;;2.70;2.50;;;6.00;59.60;;;;;;5036882;28;20785;-66
2021/03/20 16:31:04;;;;;;;3.83;2.63;;;6.10;59.90;;;;;;5037251;28;20440;-66
2021/03/20 16:33:32;;;;;;;3.10;2.80;;;6.10;90.10;;;;;;5036694;28;20533;-64
2021/03/20 16:36:00;;;;;;;2.90;2.70;;;6.30;92.00;;;;;;5036795;28;20481;-65
2021/03/20 16:38:30;;;;;;;3.13;2.67;;;6.50;83.20;;;;;;5037347;28;20462;-64
2021/03/20 16:40:56;;;;;;;2.63;2.53;;;6.60;68.10;;;;;;5037002;28;20483;-66
2021/03/20 16:43:23;;;;;;;6.10;2.93;;;6.70;66.60;;;;;;5037795;28;20978;-65
2021/03/20 16:45:50;;;;;;;2.60;2.50;;;6.70;94.70;;;;;;5043089;28;20449;-66
2021/03/20 16:48:17;;;;;;;2.73;2.53;;;6.80;72.40;;;;;;5043696;28;20963;-65
2021/03/20 16:50:45;;;;;;;2.83;2.63;;;6.60;62.30;;;;;;5040387;28;20472;-65
2021/03/20 16:53:11;;;;;;;3.27;2.97;;;6.60;63.10;;;;;;5036627;28;20476;-66
2021/03/20 16:55:39;;;;;;;5.60;2.80;;;6.50;61.70;;;;;;5036963;28;20452;-66
2021/03/20 16:58:06;;;;;;;3.47;3.17;;;6.40;60.90;;;;;;5036632;28;20529;-66
2021/03/20 17:00:36;;;;;;;3.80;3.40;;;6.40;70.10;;;;;;5042972;28;20448;-65
2021/03/20 17:03:02;;;;;;;5.90;3.07;;;6.00;67.50;;;;;;5045484;28;20487;-65
2021/03/20 17:05:29;;;;;;;2.57;2.40;;;5.80;65.50;;;;;;5036025;28;20456;-67
2021/03/20 17:07:56;;;;;;;3.33;3.10;;;5.90;64.30;;;;;;5035714;28;20444;-66
2021/03/20 17:10:24;;;;;;;2.73;2.57;;;5.70;63.80;;;;;;5036106;28;20452;-66
2021/03/20 17:12:52;;;;;;;3.97;3.07;;;5.80;67.90;;;;;;5035488;28;20475;-66
2021/03/20 17:15:19;;;;;;;4.60;2.47;;;5.80;65.20;;;;;;5036024;28;20483;-66
2021/03/20 17:17:47;;;;;;;3.00;2.80;;;5.60;64.50;;;;;;5035871;28;20476;-66
2021/03/20 17:20:17;;;;;;;2.43;2.30;;;5.50;64.80;;;;;;5036139;28;20496;-66
2021/03/20 17:22:43;;;;;;;3.30;3.00;;;5.40;61.70;;;;;;5035887;28;20483;-65
2021/03/20 17:25:11;;;;;;;2.90;2.80;;;5.30;62.10;;;;;;5035531;28;20962;-66
2021/03/20 17:27:37;;;;;;;3.60;2.80;;;5.20;62.70;;;;;;5035585;28;20965;-66
2021/03/20 17:30:06;;;;;;;2.70;2.50;;;5.20;65.60;;;;;;5035693;28;20460;-66
2021/03/20 17:32:33;;;;;;;3.60;2.77;;;5.10;65.90;;;;;;5035475;28;20875;-66
2021/03/20 17:35:00;;;;;;;4.23;3.00;;;5.10;66.80;;;;;;5035802;28;20440;-66
2021/03/20 17:37:26;;;;;;;3.43;3.10;;;5.20;67.80;;;;;;5035650;28;20479;-66
2021/03/20 17:39:52;;;;;;;3.00;2.80;;;5.20;66.10;;;;;;5035567;28;20451;-66
2021/03/20 17:42:18;;;;;;;2.97;2.60;;;5.10;69.40;;;;;;5035905;28;20452;-67
2021/03/20 17:44:45;;;;;;;3.77;3.07;;;5.10;67.60;;;;;;5035506;28;20452;-65
2021/03/20 17:47:11;;;;;;;2.70;2.50;;;5.00;69.40;;;;;;5035781;28;20455;-66
2021/03/20 17:49:39;;;;;;;2.77;2.57;;;5.10;66.80;;;;;;5035707;28;20451;-65
2021/03/20 17:52:07;;;;;;;2.63;2.43;;;5.00;66.10;;;;;;5035691;28;20452;-65
2021/03/20 17:54:33;;;;;;;2.30;2.10;;;5.00;65.80;;;;;;5035294;28;21008;-64
2021/03/20 17:56:59;;;;;;;3.70;3.40;;;5.00;65.80;;;;;;5035251;28;20528;-66
2021/03/20 17:59:25;;;;;;;4.83;3.00;;;4.90;66.50;;;;;;5034956;28;20965;-64
2021/03/20 18:01:52;;;;;;;6.60;3.20;;;5.00;66.00;;;;;;5035718;28;20463;-65
2021/03/20 18:04:18;;;;;;;3.33;3.03;;;5.00;66.90;;;;;;5035487;28;20877;-65
2021/03/20 18:06:44;;;;;;;3.90;3.10;;;4.90;69.40;;;;;;5035726;28;20459;-65
2021/03/20 18:09:12;;;;;;;2.57;2.47;;;4.90;65.40;;;;;;5035575;28;20456;-66
2021/03/20 18:11:39;;;;;;;3.33;3.03;;;4.90;64.60;;;;;;5035236;28;20458;-65
2021/03/20 18:14:05;;;;;;;3.37;3.10;;;4.80;65.90;;;;;;5035493;28;20475;-65
2021/03/20 18:16:31;;;;;;;3.63;3.10;;;4.90;66.80;;;;;;5036314;28;20472;-64
2021/03/20 18:18:58;;;;;;;2.87;2.67;;;4.90;67.90;;;;;;5038473;28;20452;-63
2021/03/20 18:21:24;;;;;;;2.83;2.63;;;4.90;67.00;;;;;;5039589;28;20455;-64
2021/03/20 18:23:50;;;;;;;3.87;2.53;;;4.90;65.60;;;;;;5037858;28;20598;-63
2021/03/20 18:26:19;;;;;;;2.70;2.50;;;4.90;66.80;;;;;;5036611;28;20821;-64